Weather at Ralph Fulmer Field [CLOSED]

Public forecast

Using degrees Fahrenheit for public forecast. Weather courtesy of forecast.io.

Closest aviation weather report (METAR) to Ralph Fulmer Field

Closest report is Little Rock Air Force Base, 11.5 nm (21.3 km) W. Retrieved 2021/10/25 13:56 UTC (2 hours ago):

KLRF 251356Z AUTO 28005KT 10SM CLR 18/15 A2993 RMK AO2 SLP136 T01750151

Closest aviation forecast (TAF) to Ralph Fulmer Field

Closest forecast is Little Rock Air Force Base, 11.5 nm (21.3 km) W. Retrieved 2021/10/25 15:06 UTC (27 minutes ago):

TAF TAF KLRF 251500Z 2515/2621 34006KT 9999 SKC QNH2993INS BECMG 2603/2604 09005KT 9999 SKC QNH3001INS BECMG 2617/2618 06006KT 9999 SCT050 QNH2999INS TX23/2520Z TN08/2607Z